Time;durP1;ratioP1;P1;durP2;ratioP2;P2;SDS_P1;SDS_P2;PMS_P1;PMS_P2;Temp;Humidity;BMP_temperature;BMP_pressure;BME280_temperature;BME280_humidity;BME280_pressure;Samples;Min_cycle;Max_cycle;Signal;HPM_P1;HPM_P2
2022/12/20 00:01:46;;;;;;;57.10;26.00;;;;;;;-2.39;81.49;100835.81;100333;1278;139592;-70
2022/12/20 00:04:14;;;;;;;52.60;26.70;;;;;;;-2.36;81.35;100827.39;101364;1278;96468;-70
2022/12/20 00:06:41;;;;;;;58.80;27.70;;;;;;;-2.33;81.62;100825.13;100850;1286;138653;-70
2022/12/20 00:09:10;;;;;;;54.20;26.20;;;;;;;-2.30;81.85;100825.21;99645;1277;1003234;-69
2022/12/20 00:11:41;;;;;;;58.60;28.20;;;;;;;-2.28;82.18;100814.70;100407;1286;109720;-68
2022/12/20 00:14:08;;;;;;;59.90;27.80;;;;;;;-2.24;82.42;100808.00;100461;1278;139725;-71
2022/12/20 00:16:37;;;;;;;57.00;28.00;;;;;;;-2.21;82.27;100802.11;100354;1289;97481;-71
2022/12/20 00:19:07;;;;;;;58.20;26.60;;;;;;;-2.18;82.64;100800.15;100399;1286;140573;-71
2022/12/20 00:21:35;;;;;;;55.90;27.80;;;;;;;-2.15;82.71;100797.55;100903;1285;96241;-72
2022/12/20 00:24:02;;;;;;;57.60;26.70;;;;;;;-2.11;82.62;100793.38;101110;1277;108885;-71
2022/12/20 00:26:32;;;;;;;55.40;27.20;;;;;;;-2.09;82.83;100787.30;100490;1294;138142;-72
2022/12/20 00:29:00;;;;;;;52.40;25.00;;;;;;;-2.05;83.08;100787.75;100879;1278;96466;-71
2022/12/20 00:31:29;;;;;;;54.60;26.70;;;;;;;-2.02;83.38;100785.77;100260;1285;138939;-72
2022/12/20 00:33:58;;;;;;;54.00;26.60;;;;;;;-1.99;83.29;100783.30;100455;1285;96573;-70
2022/12/20 00:36:28;;;;;;;50.70;26.30;;;;;;;-1.95;83.22;100780.89;100434;1282;138569;-69
2022/12/20 00:38:56;;;;;;;53.40;26.50;;;;;;;-1.90;83.82;100777.42;100449;1287;108189;-70
2022/12/20 00:41:26;;;;;;;52.20;25.50;;;;;;;-1.86;83.71;100781.78;100403;1278;96958;-68
2022/12/20 00:43:53;;;;;;;48.60;24.70;;;;;;;-1.83;83.70;100780.34;100327;1282;138412;-69
2022/12/20 00:46:23;;;;;;;49.20;25.50;;;;;;;-1.77;83.87;100782.20;100525;1271;96475;-68
2022/12/20 00:48:51;;;;;;;52.60;26.90;;;;;;;-1.73;84.18;100776.68;100306;1287;137841;-68
2022/12/20 00:51:21;;;;;;;51.60;26.20;;;;;;;-1.69;84.28;100775.57;100417;1285;107185;-70
2022/12/20 00:53:48;;;;;;;51.50;25.00;;;;;;;-1.67;84.02;100773.92;100205;1286;97045;-69
2022/12/20 00:56:16;;;;;;;52.60;25.50;;;;;;;-1.67;84.52;100767.78;100903;1287;137668;-70
2022/12/20 00:58:45;;;;;;;53.30;26.10;;;;;;;-1.66;84.53;100765.59;100613;1288;96649;-69
2022/12/20 01:01:20;;;;;;;49.80;25.80;;;;;;;-1.65;84.90;100764.60;100259;1288;138256;-69
2022/12/20 01:03:47;;;;;;;49.50;25.30;;;;;;;-1.60;85.04;100763.20;100351;1288;107196;-69
2022/12/20 01:06:15;;;;;;;49.80;25.00;;;;;;;-1.59;85.19;100759.15;100311;1287;140297;-69
2022/12/20 01:08:43;;;;;;;44.70;24.20;;;;;;;-1.56;85.56;100755.45;100353;1282;106650;-69
2022/12/20 01:11:13;;;;;;;49.60;24.90;;;;;;;-1.54;85.62;100756.36;100557;1285;96682;-68
2022/12/20 01:13:43;;;;;;;50.00;25.70;;;;;;;-1.52;85.69;100754.55;100541;1288;138195;-68
2022/12/20 01:16:14;;;;;;;45.80;24.30;;;;;;;-1.48;85.64;100747.13;100228;1288;107394;-69
2022/12/20 01:18:42;;;;;;;51.00;24.80;;;;;;;-1.42;86.10;100751.03;100355;1284;138476;-68
2022/12/20 01:21:12;;;;;;;46.70;24.00;;;;;;;-1.40;86.31;100745.27;100660;1285;107671;-69
2022/12/20 01:23:39;;;;;;;46.10;23.50;;;;;;;-1.38;86.55;100746.85;100357;1278;96529;-69
2022/12/20 01:26:09;;;;;;;44.30;23.20;;;;;;;-1.35;86.40;100744.88;100470;1286;138237;-69
2022/12/20 01:28:39;;;;;;;41.80;22.80;;;;;;;-1.31;86.48;100750.77;100358;1284;108152;-68
2022/12/20 01:31:08;;;;;;;44.80;23.70;;;;;;;-1.26;86.81;100747.66;100369;1279;138419;-70
2022/12/20 01:33:36;;;;;;;44.70;23.50;;;;;;;-1.22;86.93;100730.87;100627;1289;108598;-69
2022/12/20 01:36:06;;;;;;;38.90;22.10;;;;;;;-1.19;87.24;100722.56;100331;1288;96469;-69
2022/12/20 01:38:35;;;;;;;45.20;23.80;;;;;;;-1.17;87.08;100715.95;100307;1293;138170;-69
2022/12/20 01:41:03;;;;;;;39.40;21.40;;;;;;;-1.15;87.34;100704.91;100386;1286;107486;-69
2022/12/20 01:43:47;;;;;;;45.30;23.30;;;;;;;-1.13;87.36;100701.54;100765;1280;138762;-68
2022/12/20 01:46:15;;;;;;;40.30;21.80;;;;;;;-1.10;87.43;100701.77;100677;1278;106474;-68
2022/12/20 01:48:47;;;;;;;45.00;22.60;;;;;;;-1.09;87.38;100696.34;100102;1291;138661;-69
2022/12/20 01:51:14;;;;;;;45.50;22.60;;;;;;;-1.06;87.74;100692.16;100375;1287;108995;-68
2022/12/20 01:53:42;;;;;;;43.10;21.90;;;;;;;-1.02;87.98;100683.36;100516;1284;106047;-69
2022/12/20 01:56:10;;;;;;;45.70;22.90;;;;;;;-0.99;88.11;100679.16;100663;1293;139001;-69
2022/12/20 01:58:40;;;;;;;42.30;22.20;;;;;;;-0.96;88.18;100672.73;100286;1292;107189;-68
2022/12/20 02:01:08;;;;;;;40.80;22.00;;;;;;;-0.91;88.26;100675.89;100139;1287;139342;-68
2022/12/20 02:03:35;;;;;;;44.20;22.00;;;;;;;-0.88;88.50;100669.31;100411;1287;108893;-68
2022/12/20 02:06:17;;;;;;;41.50;22.10;;;;;;;-0.85;88.56;100669.90;100371;1278;107598;-68
2022/12/20 02:08:46;;;;;;;39.40;22.10;;;;;;;-0.85;88.24;100662.89;100573;1293;96506;-68
2022/12/20 02:11:28;;;;;;;41.00;22.00;;;;;;;-0.83;88.75;100668.57;100892;1282;107351;-68
2022/12/20 02:14:09;;;;;;;42.20;21.20;;;;;;;-0.79;88.64;100661.47;100388;1291;138403;-67
2022/12/20 02:16:40;;;;;;;39.80;21.50;;;;;;;-0.76;88.40;100663.42;100680;1285;109332;-68
2022/12/20 02:19:24;;;;;;;46.10;22.90;;;;;;;-0.73;88.58;100656.30;100577;1287;138566;-67
2022/12/20 02:22:04;;;;;;;41.70;22.10;;;;;;;-0.68;88.40;100656.75;100446;1287;96411;-69
2022/12/20 02:24:56;;;;;;;42.90;21.70;;;;;;;-0.65;88.78;100649.81;100334;1288;139221;-69
2022/12/20 02:27:46;;;;;;;37.80;21.30;;;;;;;-0.63;88.83;100645.41;100437;1287;96382;-69
2022/12/20 02:30:18;;;;;;;44.90;22.00;;;;;;;-0.61;88.90;100650.91;100214;1293;109531;-68
2022/12/20 02:32:51;;;;;;;39.00;21.50;;;;;;;-0.60;88.90;100644.77;100125;1288;106645;-68
2022/12/20 02:35:23;;;;;;;42.10;21.50;;;;;;;-0.57;88.90;100646.02;100359;1279;96985;-68
2022/12/20 02:37:53;;;;;;;39.60;21.50;;;;;;;-0.56;88.70;100643.30;100264;1281;138299;-69
2022/12/20 02:40:23;;;;;;;40.40;21.10;;;;;;;-0.54;88.74;100639.23;101157;1295;96542;-69
2022/12/20 02:42:55;;;;;;;39.00;19.90;;;;;;;-0.54;89.00;100640.77;100729;1287;140488;-69
2022/12/20 02:45:27;;;;;;;40.20;22.40;;;;;;;-0.53;88.97;100642.02;100512;1286;107291;-68
2022/12/20 02:47:59;;;;;;;40.90;21.50;;;;;;;-0.52;89.24;100640.50;100459;1293;97154;-68
2022/12/20 02:50:30;;;;;;;40.40;21.00;;;;;;;-0.50;89.57;100638.83;100321;1281;140933;-68
2022/12/20 02:52:58;;;;;;;42.70;22.40;;;;;;;-0.49;89.42;100640.21;100586;1287;96611;-70
2022/12/20 02:55:32;;;;;;;36.70;20.80;;;;;;;-0.47;89.42;100636.84;100123;1290;138443;-69
2022/12/20 02:58:04;;;;;;;37.50;21.00;;;;;;;-0.44;89.62;100634.14;100268;1281;106371;-69
2022/12/20 03:00:38;;;;;;;42.70;20.90;;;;;;;-0.43;89.77;100632.29;100065;1288;139267;-69
2022/12/20 03:03:24;;;;;;;39.70;20.00;;;;;;;-0.41;89.69;100628.73;100474;1284;107333;-69
2022/12/20 03:05:54;;;;;;;39.70;20.10;;;;;;;-0.40;89.72;100623.96;100362;1285;96467;-69
2022/12/20 03:08:22;;;;;;;34.40;19.40;;;;;;;-0.39;89.73;100624.67;100269;1285;138440;-68
2022/12/20 03:10:49;;;;;;;35.80;19.50;;;;;;;-0.36;89.75;100623.35;100428;1281;108356;-69
2022/12/20 03:13:17;;;;;;;33.70;19.50;;;;;;;-0.34;89.84;100620.34;100251;1285;138544;-69
2022/12/20 03:15:48;;;;;;;35.60;19.70;;;;;;;-0.32;89.93;100614.90;100201;1281;106668;-70
2022/12/20 03:18:15;;;;;;;36.20;20.00;;;;;;;-0.29;90.01;100615.30;100221;1289;96508;-70
2022/12/20 03:20:43;;;;;;;34.60;18.20;;;;;;;-0.26;89.88;100621.49;100407;1285;110332;-69
2022/12/20 03:23:11;;;;;;;36.40;18.90;;;;;;;-0.23;89.78;100624.45;100359;1285;107950;-69
2022/12/20 03:25:38;;;;;;;35.80;19.30;;;;;;;-0.19;90.07;100631.52;100681;1286;138414;-69
2022/12/20 03:28:07;;;;;;;37.90;18.60;;;;;;;-0.15;89.83;100635.36;100099;1285;198625;-69
2022/12/20 03:30:34;;;;;;;34.20;19.10;;;;;;;-0.13;89.73;100632.84;100151;1286;141831;-70
2022/12/20 03:33:02;;;;;;;36.40;19.70;;;;;;;-0.11;89.83;100619.88;100477;1281;109540;-70
2022/12/20 03:35:29;;;;;;;34.90;18.90;;;;;;;-0.09;89.94;100608.27;100144;1293;107868;-69
2022/12/20 03:37:56;;;;;;;33.40;19.20;;;;;;;-0.09;89.98;100609.14;100136;1288;137720;-68
2022/12/20 03:40:23;;;;;;;30.00;17.40;;;;;;;-0.09;89.81;100614.78;100482;1285;109810;-70
2022/12/20 03:42:51;;;;;;;36.60;19.40;;;;;;;-0.08;90.07;100608.47;100380;1279;139147;-68
2022/12/20 03:45:20;;;;;;;35.70;19.30;;;;;;;-0.08;90.16;100603.00;100818;1278;109937;-68
2022/12/20 03:47:48;;;;;;;34.60;19.20;;;;;;;-0.07;89.98;100610.70;100681;1286;109182;-69
2022/12/20 03:50:15;;;;;;;32.70;17.20;;;;;;;-0.05;90.04;100613.98;100615;1289;138500;-68
2022/12/20 03:52:42;;;;;;;33.60;18.50;;;;;;;-0.02;90.10;100617.11;100862;1285;108460;-68
2022/12/20 03:55:12;;;;;;;34.40;19.00;;;;;;;0.02;90.21;100612.40;101210;1286;138402;-68
2022/12/20 03:57:42;;;;;;;32.90;18.70;;;;;;;0.04;90.31;100615.00;101233;1288;110703;-68
2022/12/20 04:00:41;;;;;;;31.50;18.30;;;;;;;0.06;90.10;100611.78;100197;1282;139281;-68
2022/12/20 04:03:44;;;;;;;33.60;17.40;;;;;;;0.08;90.01;100611.98;101118;1284;95333;-68
2022/12/20 04:06:11;;;;;;;32.70;17.10;;;;;;;0.10;90.17;100609.80;100669;1287;108861;-68
2022/12/20 04:08:38;;;;;;;35.50;18.70;;;;;;;0.15;90.10;100609.86;100436;1288;138126;-67
2022/12/20 04:11:16;;;;;;;33.60;18.80;;;;;;;0.17;90.16;100619.82;100600;1287;110483;-68
2022/12/20 04:13:58;;;;;;;33.90;17.60;;;;;;;0.19;90.02;100614.55;100324;1285;138440;-68
2022/12/20 04:16:27;;;;;;;31.40;17.70;;;;;;;0.20;90.16;100608.42;100555;1284;96550;-68
2022/12/20 04:18:55;;;;;;;33.80;18.80;;;;;;;0.21;90.23;100595.95;100694;1284;139260;-68
2022/12/20 04:21:27;;;;;;;30.20;17.50;;;;;;;0.22;90.31;100586.21;100630;1278;96464;-68
2022/12/20 04:23:56;;;;;;;31.30;17.30;;;;;;;0.20;90.48;100580.55;100435;1287;109759;-68
2022/12/20 04:26:27;;;;;;;31.60;17.90;;;;;;;0.19;90.22;100584.81;100393;1278;138456;-68
2022/12/20 04:28:55;;;;;;;31.10;17.90;;;;;;;0.20;90.20;100583.11;100606;1285;96475;-68
2022/12/20 04:31:23;;;;;;;32.50;17.20;;;;;;;0.19;90.20;100585.14;100166;1293;138186;-69
2022/12/20 04:33:52;;;;;;;34.40;17.90;;;;;;;0.18;90.24;100580.33;100313;1288;96495;-69
2022/12/20 04:36:20;;;;;;;34.80;18.30;;;;;;;0.19;90.34;100579.83;100330;1284;109812;-70
2022/12/20 04:38:49;;;;;;;30.10;16.80;;;;;;;0.20;90.17;100586.36;100382;1286;107615;-69
2022/12/20 04:41:22;;;;;;;31.20;16.30;;;;;;;0.22;90.08;100595.80;100415;1286;96355;-69
2022/12/20 04:43:55;;;;;;;31.00;17.60;;;;;;;0.23;90.04;100598.21;100274;1294;138283;-69
2022/12/20 04:46:26;;;;;;;27.60;16.00;;;;;;;0.25;90.06;100597.38;100119;1288;96488;-69
2022/12/20 04:48:55;;;;;;;31.40;17.10;;;;;;;0.28;90.08;100603.06;100394;1286;138207;-69
2022/12/20 04:51:25;;;;;;;36.10;18.30;;;;;;;0.28;89.97;100591.42;100425;1288;108648;-68
2022/12/20 04:53:53;;;;;;;31.40;17.60;;;;;;;0.26;90.01;100599.27;100285;1285;97534;-70
2022/12/20 04:56:27;;;;;;;31.10;16.60;;;;;;;0.23;89.88;100595.30;100235;1284;139271;-68
2022/12/20 04:58:58;;;;;;;32.70;16.80;;;;;;;0.23;90.09;100594.09;100481;1287;96466;-69
2022/12/20 05:01:26;;;;;;;31.30;17.60;;;;;;;0.23;90.09;100590.85;100777;1285;139310;-68
2022/12/20 05:03:54;;;;;;;32.70;17.70;;;;;;;0.23;90.14;100586.74;100783;1284;107413;-68
2022/12/20 05:06:22;;;;;;;35.90;18.00;;;;;;;0.24;90.20;100585.56;100503;1278;96473;-69
2022/12/20 05:08:50;;;;;;;35.60;19.00;;;;;;;0.24;90.25;100571.54;100206;1291;107512;-70
2022/12/20 05:11:17;;;;;;;32.00;17.40;;;;;;;0.24;90.38;100576.67;100242;1284;96869;-68
2022/12/20 05:13:45;;;;;;;37.30;18.90;;;;;;;0.25;90.11;100576.51;99997;1288;138034;-69
2022/12/20 05:16:14;;;;;;;34.80;17.20;;;;;;;0.26;90.22;100574.81;100326;1281;107612;-70
2022/12/20 05:18:44;;;;;;;33.60;17.00;;;;;;;0.26;90.18;100566.95;100207;1294;138740;-70
2022/12/20 05:26:56;;;;;;;34.80;17.80;;;;;;;0.35;90.20;100567.42;100271;1290;111702;-70
2022/12/20 05:29:23;;;;;;;33.60;17.10;;;;;;;0.38;90.33;100566.45;100018;1288;107534;-70
2022/12/20 05:31:51;;;;;;;33.00;16.20;;;;;;;0.42;90.18;100561.19;100407;1287;138261;-69
2022/12/20 05:34:21;;;;;;;33.20;17.40;;;;;;;0.45;90.11;100554.04;100099;1288;107517;-69
2022/12/20 05:36:52;;;;;;;33.40;17.30;;;;;;;0.49;90.18;100551.86;100181;1284;137836;-69
2022/12/20 05:39:22;;;;;;;37.20;17.10;;;;;;;0.49;89.94;100550.67;100197;1288;108952;-68
2022/12/20 05:41:52;;;;;;;33.70;18.00;;;;;;;0.47;89.93;100555.79;100039;1289;107513;-69
2022/12/20 05:44:21;;;;;;;30.20;17.00;;;;;;;0.47;89.95;100558.00;100153;1285;139485;-69
2022/12/20 05:46:51;;;;;;;31.60;17.10;;;;;;;0.48;90.01;100565.54;100170;1288;106756;-70
2022/12/20 05:49:22;;;;;;;34.30;16.90;;;;;;;0.48;89.92;100563.67;100205;1285;139389;-69
2022/12/20 05:51:49;;;;;;;32.60;17.10;;;;;;;0.49;89.79;100565.21;100282;1293;109019;-69
2022/12/20 05:54:21;;;;;;;33.60;17.40;;;;;;;0.51;89.91;100567.81;100222;1286;105620;-68
2022/12/20 05:57:09;;;;;;;31.90;16.90;;;;;;;0.53;89.91;100571.26;100384;1291;96342;-69
2022/12/20 05:59:38;;;;;;;32.20;16.90;;;;;;;0.56;89.87;100568.41;100249;1286;108286;-69
2022/12/20 06:02:10;;;;;;;33.10;17.40;;;;;;;0.56;89.80;100569.95;99967;1281;139420;-69
2022/12/20 06:04:39;;;;;;;31.50;16.70;;;;;;;0.55;89.75;100562.07;100257;1288;109474;-70
2022/12/20 06:07:15;;;;;;;30.80;17.10;;;;;;;0.56;89.67;100559.34;100108;1294;138634;-70
2022/12/20 06:09:45;;;;;;;29.20;16.90;;;;;;;0.57;89.69;100567.73;100463;1284;96763;-70
2022/12/20 06:12:15;;;;;;;31.30;16.70;;;;;;;0.58;89.71;100557.83;100094;1284;106079;-69
2022/12/20 06:14:44;;;;;;;33.10;16.80;;;;;;;0.62;89.64;100561.45;100037;1281;138381;-71
2022/12/20 06:17:12;;;;;;;31.50;17.40;;;;;;;0.64;89.48;100555.14;100432;1285;109826;-72
2022/12/20 06:19:40;;;;;;;31.00;16.70;;;;;;;0.68;89.69;100560.84;100137;1292;138286;-69
2022/12/20 06:22:10;;;;;;;31.10;17.20;;;;;;;0.72;89.46;100562.95;100494;1285;96451;-70
2022/12/20 06:24:42;;;;;;;35.80;17.80;;;;;;;0.75;89.31;100563.34;100266;1283;138537;-69
2022/12/20 06:27:17;;;;;;;29.80;16.20;;;;;;;0.76;89.16;100565.75;100089;1287;97046;-68
2022/12/20 06:29:53;;;;;;;31.50;16.60;;;;;;;0.75;88.96;100564.37;100497;1284;110428;-71
2022/12/20 06:32:23;;;;;;;29.10;16.50;;;;;;;0.75;89.03;100562.15;100162;1288;139660;-71
2022/12/20 06:34:50;;;;;;;36.30;16.30;;;;;;;0.76;88.92;100565.77;100320;1281;98100;-72
2022/12/20 06:37:18;;;;;;;31.70;17.50;;;;;;;0.77;88.76;100561.48;100237;1279;138074;-71
2022/12/20 06:39:46;;;;;;;30.80;17.20;;;;;;;0.75;88.60;100560.96;100266;1285;97142;-71
2022/12/20 06:42:14;;;;;;;30.80;17.00;;;;;;;0.78;88.68;100557.73;100199;1285;109913;-71
2022/12/20 06:44:43;;;;;;;33.90;18.20;;;;;;;0.80;88.68;100561.00;100287;1284;138249;-70
2022/12/20 06:47:10;;;;;;;32.20;17.90;;;;;;;0.83;88.54;100559.16;100211;1281;97033;-70
2022/12/20 06:49:38;;;;;;;32.10;16.90;;;;;;;0.86;88.50;100563.98;100032;1288;138223;-70
2022/12/20 06:52:11;;;;;;;29.20;16.80;;;;;;;0.86;88.37;100572.20;100228;1287;96576;-70
2022/12/20 06:54:45;;;;;;;31.40;16.10;;;;;;;0.87;88.27;100572.20;100308;1279;138469;-70
2022/12/20 06:57:12;;;;;;;30.40;16.50;;;;;;;0.87;88.20;100572.38;100191;1284;107616;-70
2022/12/20 06:59:41;;;;;;;34.80;17.20;;;;;;;0.89;88.05;100575.84;100195;1284;96923;-72
2022/12/20 07:02:09;;;;;;;28.70;16.30;;;;;;;0.94;88.03;100577.61;100173;1285;138352;-72
2022/12/20 07:04:37;;;;;;;28.90;16.50;;;;;;;0.97;87.92;100577.64;100488;1285;96567;-70
2022/12/20 07:07:05;;;;;;;33.10;16.60;;;;;;;0.98;87.77;100575.78;100230;1285;138789;-71
2022/12/20 07:09:33;;;;;;;31.40;17.70;;;;;;;0.99;87.53;100576.30;100238;1284;108083;-71
2022/12/20 07:12:00;;;;;;;32.30;18.10;;;;;;;1.00;87.43;100579.56;100399;1277;96497;-72
2022/12/20 07:14:28;;;;;;;34.90;18.50;;;;;;;1.02;87.34;100580.61;100198;1285;137509;-73
2022/12/20 07:16:55;;;;;;;35.10;17.90;;;;;;;1.01;87.20;100580.77;100299;1285;96348;-71
2022/12/20 07:19:22;;;;;;;32.00;17.60;;;;;;;1.02;87.06;100581.30;100235;1285;138226;-73
2022/12/20 07:21:51;;;;;;;32.90;17.60;;;;;;;1.03;86.95;100580.96;100557;1285;107436;-73
2022/12/20 07:24:19;;;;;;;33.20;17.40;;;;;;;1.05;86.79;100578.76;100304;1285;96576;-70
2022/12/20 07:26:46;;;;;;;29.60;17.30;;;;;;;1.05;86.57;100577.05;100017;1288;138323;-71
2022/12/20 07:29:14;;;;;;;34.60;18.20;;;;;;;1.06;86.62;100575.68;100125;1289;96509;-70
2022/12/20 07:31:42;;;;;;;34.50;17.80;;;;;;;1.08;86.61;100568.55;100292;1280;139794;-68
2022/12/20 07:34:10;;;;;;;32.40;17.90;;;;;;;1.12;86.53;100572.52;100359;1299;106550;-69
2022/12/20 07:36:37;;;;;;;34.20;16.90;;;;;;;1.15;86.40;100577.70;100296;1293;138954;-69
2022/12/20 07:39:05;;;;;;;33.80;18.90;;;;;;;1.18;86.27;100574.13;100091;1281;107147;-69
2022/12/20 07:41:33;;;;;;;36.00;18.60;;;;;;;1.22;86.10;100576.39;100220;1285;96481;-69
2022/12/20 07:44:02;;;;;;;31.90;17.80;;;;;;;1.28;85.94;100573.56;100132;1287;137755;-69
2022/12/20 07:46:29;;;;;;;36.00;18.60;;;;;;;1.32;85.76;100569.14;100254;1284;107466;-69
2022/12/20 07:48:57;;;;;;;37.80;19.60;;;;;;;1.33;85.40;100571.04;100183;1289;138183;-70
2022/12/20 07:51:28;;;;;;;33.00;18.90;;;;;;;1.36;85.40;100569.85;100352;1282;107648;-70
2022/12/20 07:54:01;;;;;;;36.10;19.10;;;;;;;1.37;85.25;100566.79;100296;1284;96546;-71
2022/12/20 07:56:30;;;;;;;35.50;19.10;;;;;;;1.37;84.99;100570.73;100254;1291;137323;-70
2022/12/20 07:59:04;;;;;;;35.20;19.40;;;;;;;1.37;84.86;100569.36;100387;1285;106430;-70
2022/12/20 08:01:32;;;;;;;34.60;18.70;;;;;;;1.38;84.81;100567.48;100073;1287;138274;-69
2022/12/20 08:04:04;;;;;;;34.10;19.40;;;;;;;1.40;84.99;100567.84;100335;1285;106361;-69
2022/12/20 08:06:34;;;;;;;36.50;19.20;;;;;;;1.42;84.65;100570.25;100320;1284;96400;-69
2022/12/20 08:09:05;;;;;;;36.50;18.20;;;;;;;1.43;84.59;100572.50;100820;1285;110116;-70
2022/12/20 08:11:37;;;;;;;30.20;17.80;;;;;;;1.45;84.56;100576.82;100295;1284;107521;-70
2022/12/20 08:14:08;;;;;;;34.30;17.80;;;;;;;1.45;84.21;100579.90;100137;1285;140639;-71
2022/12/20 08:16:36;;;;;;;34.90;17.70;;;;;;;1.47;84.17;100580.27;100295;1284;107589;-70
2022/12/20 08:19:03;;;;;;;32.10;17.30;;;;;;;1.48;84.03;100570.50;100188;1285;139639;-73
2022/12/20 08:21:31;;;;;;;31.30;18.00;;;;;;;1.53;84.03;100570.71;100394;1291;110199;-70
2022/12/20 08:23:59;;;;;;;32.70;19.00;;;;;;;1.59;84.02;100566.66;100299;1291;137603;-67
2022/12/20 08:26:26;;;;;;;34.40;17.80;;;;;;;1.63;83.97;100570.66;100360;1287;96492;-69
2022/12/20 08:28:53;;;;;;;36.70;19.10;;;;;;;1.65;83.82;100572.05;100481;1288;108073;-69
2022/12/20 08:31:21;;;;;;;37.20;20.30;;;;;;;1.65;83.63;100565.36;100258;1284;138034;-69
2022/12/20 08:33:49;;;;;;;35.50;19.10;;;;;;;1.64;83.65;100566.04;100376;1278;110000;-70
2022/12/20 08:36:16;;;;;;;34.70;18.80;;;;;;;1.63;83.32;100560.71;100348;1291;138569;-70
2022/12/20 08:38:44;;;;;;;41.30;20.00;;;;;;;1.61;83.21;100559.98;100396;1291;96404;-69
2022/12/20 08:41:13;;;;;;;37.50;20.00;;;;;;;1.60;83.15;100559.64;100362;1284;108090;-69
2022/12/20 08:43:41;;;;;;;32.90;18.40;;;;;;;1.61;83.29;100560.31;100215;1284;138979;-71
2022/12/20 08:46:10;;;;;;;34.30;17.50;;;;;;;1.63;83.18;100557.28;99675;1284;1016290;-71
2022/12/20 08:48:37;;;;;;;34.50;19.40;;;;;;;1.67;83.20;100562.98;100374;1285;140361;-70
2022/12/20 08:51:07;;;;;;;33.80;17.50;;;;;;;1.73;83.23;100567.82;100975;1284;96504;-69
2022/12/20 08:53:35;;;;;;;35.70;19.60;;;;;;;1.78;83.02;100566.65;100352;1287;109864;-70
2022/12/20 08:56:08;;;;;;;32.10;18.40;;;;;;;1.84;82.80;100560.89;100281;1286;138109;-71
2022/12/20 08:58:36;;;;;;;33.00;18.50;;;;;;;1.86;82.32;100555.59;100261;1296;109661;-70
2022/12/20 09:01:04;;;;;;;34.80;18.20;;;;;;;1.90;82.29;100558.02;100259;1284;138222;-70
2022/12/20 09:03:33;;;;;;;34.40;18.10;;;;;;;1.95;82.16;100559.58;100400;1291;98162;-69
2022/12/20 09:06:05;;;;;;;35.60;18.90;;;;;;;1.97;81.92;100563.90;100268;1286;138136;-69
2022/12/20 09:08:32;;;;;;;37.80;19.90;;;;;;;2.03;82.08;100563.09;101283;1291;94650;-71
2022/12/20 09:11:07;;;;;;;38.60;20.20;;;;;;;2.10;81.95;100557.30;100485;1284;110044;-70
2022/12/20 09:13:35;;;;;;;38.10;19.80;;;;;;;2.18;81.73;100558.23;100178;1284;137490;-70
2022/12/20 09:16:11;;;;;;;32.30;18.70;;;;;;;2.27;81.81;100561.02;100235;1287;96887;-71
2022/12/20 09:18:40;;;;;;;36.50;20.10;;;;;;;2.35;81.58;100558.00;101670;1291;137442;-72
2022/12/20 09:21:08;;;;;;;40.20;20.20;;;;;;;2.45;81.43;100556.50;101835;1285;94612;-70
2022/12/20 09:23:37;;;;;;;37.20;20.10;;;;;;;2.56;81.06;100545.94;101780;1294;109025;-71
2022/12/20 09:26:06;;;;;;;38.20;20.00;;;;;;;2.69;80.98;100548.40;101644;1287;138176;-72
2022/12/20 09:28:33;;;;;;;39.80;21.50;;;;;;;2.84;80.62;100550.18;101749;1287;96043;-73
2022/12/20 09:31:02;;;;;;;39.90;21.80;;;;;;;3.04;80.44;100549.56;101622;1287;139745;-72
2022/12/20 09:33:29;;;;;;;37.80;21.00;;;;;;;3.24;79.80;100544.30;100690;1282;97840;-72
2022/12/20 09:35:57;;;;;;;34.20;20.40;;;;;;;3.37;79.30;100537.61;100342;1287;137847;-76
2022/12/20 09:38:25;;;;;;;39.70;21.70;;;;;;;3.48;79.05;100538.84;100223;1290;107247;-73
2022/12/20 09:40:56;;;;;;;39.40;22.10;;;;;;;3.60;78.54;100533.52;100378;1284;98049;-70
2022/12/20 09:43:24;;;;;;;34.90;20.60;;;;;;;3.69;78.06;100540.41;99499;1288;1003641;-70
2022/12/20 09:45:54;;;;;;;42.60;22.70;;;;;;;3.75;77.79;100538.84;100338;1286;97806;-71
2022/12/20 09:48:25;;;;;;;38.50;22.20;;;;;;;3.83;78.03;100531.13;100186;1285;138039;-71
2022/12/20 09:51:03;;;;;;;41.50;22.30;;;;;;;3.96;77.86;100534.21;100314;1285;107170;-71
2022/12/20 09:53:42;;;;;;;36.80;21.50;;;;;;;4.06;77.38;100536.77;100303;1284;98207;-71
2022/12/20 09:56:14;;;;;;;39.10;22.20;;;;;;;4.26;77.52;100541.91;100323;1285;107116;-71
2022/12/20 09:58:58;;;;;;;36.80;21.90;;;;;;;4.50;77.74;100542.38;100353;1286;97697;-70
2022/12/20 10:01:28;;;;;;;36.80;20.80;;;;;;;4.73;77.20;100545.06;100227;1285;136603;-70
2022/12/20 10:04:07;;;;;;;37.30;21.60;;;;;;;4.87;76.87;100544.50;100148;1285;107120;-71
2022/12/20 10:06:52;;;;;;;38.70;21.20;;;;;;;4.93;76.67;100535.67;100216;1286;138629;-70
2022/12/20 10:09:37;;;;;;;37.30;21.10;;;;;;;4.98;75.77;100532.02;100260;1284;107464;-72
2022/12/20 10:12:18;;;;;;;38.80;22.00;;;;;;;5.03;75.31;100538.91;100195;1284;138675;-70
2022/12/20 10:14:58;;;;;;;39.40;21.10;;;;;;;5.26;76.27;100537.23;100313;1284;110812;-70
2022/12/20 10:17:36;;;;;;;42.80;21.60;;;;;;;5.62;76.00;100536.11;100289;1292;107252;-71
2022/12/20 10:20:19;;;;;;;37.40;22.30;;;;;;;5.95;75.59;100531.23;100515;1278;137623;-70
2022/12/20 10:22:53;;;;;;;34.20;21.50;;;;;;;6.17;74.67;100527.23;100335;1285;106790;-70
2022/12/20 10:25:22;;;;;;;43.50;22.50;;;;;;;6.23;73.94;100526.30;100294;1284;137836;-72
2022/12/20 10:27:55;;;;;;;41.00;23.30;;;;;;;6.22;73.58;100533.41;100354;1285;110320;-72
2022/12/20 10:30:25;;;;;;;38.80;22.20;;;;;;;6.17;73.50;100533.29;100147;1289;137988;-73
2022/12/20 10:32:54;;;;;;;40.10;22.70;;;;;;;6.08;72.65;100533.36;100313;1285;97810;-71
2022/12/20 10:35:27;;;;;;;40.90;23.30;;;;;;;5.91;72.44;100524.52;100282;1276;106687;-72
2022/12/20 10:38:01;;;;;;;37.70;22.60;;;;;;;5.74;72.25;100523.44;100440;1287;139483;-70
2022/12/20 10:40:38;;;;;;;42.80;23.50;;;;;;;5.56;72.28;100524.27;100521;1285;111950;-71
2022/12/20 10:43:27;;;;;;;41.00;23.30;;;;;;;5.37;72.41;100517.50;100759;1286;138668;-72
2022/12/20 10:46:00;;;;;;;41.90;24.00;;;;;;;5.29;72.78;100509.29;100469;1286;98291;-70
2022/12/20 10:48:32;;;;;;;41.90;24.00;;;;;;;5.19;73.11;100504.86;100364;1285;137765;-71
2022/12/20 10:51:01;;;;;;;40.20;22.60;;;;;;;5.10;72.94;100505.44;100438;1284;97827;-71
2022/12/20 10:53:29;;;;;;;40.20;23.20;;;;;;;5.04;73.15;100506.68;100376;1285;112504;-71
2022/12/20 10:56:18;;;;;;;43.70;23.30;;;;;;;4.98;73.11;100505.32;100325;1285;137773;-71
2022/12/20 10:58:54;;;;;;;43.10;22.60;;;;;;;4.85;73.12;100506.08;100512;1290;97838;-71
2022/12/20 11:01:23;;;;;;;41.60;23.10;;;;;;;4.75;73.23;100504.23;100196;1287;138711;-72
2022/12/20 11:03:57;;;;;;;43.90;23.00;;;;;;;4.68;73.30;100493.08;100138;1280;97706;-71
2022/12/20 11:06:27;;;;;;;41.80;22.70;;;;;;;4.64;73.38;100481.88;100009;1281;140339;-70
2022/12/20 11:09:12;;;;;;;44.60;24.00;;;;;;;4.61;73.22;100471.73;100217;1288;107620;-69
2022/12/20 11:11:39;;;;;;;40.90;23.60;;;;;;;4.52;72.87;100463.00;100189;1287;98349;-71
2022/12/20 11:14:15;;;;;;;44.30;22.70;;;;;;;4.37;72.70;100455.66;99914;1288;137795;-70
2022/12/20 11:16:53;;;;;;;43.20;23.10;;;;;;;4.27;73.18;100446.89;100006;1288;97818;-73
2022/12/20 11:19:37;;;;;;;41.80;23.20;;;;;;;4.18;72.84;100440.05;99896;1287;137551;-71
2022/12/20 11:22:14;;;;;;;44.80;23.30;;;;;;;4.04;72.95;100440.95;100040;1281;107887;-74
2022/12/20 11:24:51;;;;;;;42.10;23.70;;;;;;;3.88;73.37;100442.17;100017;1288;137688;-73